Airfield :
LOGIN :

Register | Disclaimer

   EN    FR    IT 

 










Legend :    VFR   Marginal VFR   IFR   Intensive IFR   Very Intensive IFR
Visi :
Ceiling :
>= 8 km
>= 3000ft
5 to 8 km
1000 to 3000 ft
1500m to 5 km
500 to 1000 ft
800 to 1500m
200 to 500 ft
< 800m
< 200 ft
Symbols :   Thunderstorms  Fog  Heavy snow  Heavy precipitations  Wind > 20 kt
SIGMETs :     Misc.  Thunderstorms  Icing  Turbulence  Mountain Waves  Volcanic Ashes






- Airport Elevation : 79 ft
- IATA code : SPU


LDSP - Split

CURRENT METAR :
  • 120600Z 32005KT 290V360 9999 BKN040 10/03 Q1005 NOSIG

EXPIRED METARs :
  • 120530Z 02004KT 340V050 9999 SCT040 09/03 Q1005 NOSIG
  • 120500Z AUTO 01005KT 9999 BKN040/// OVC046/// 09/03 Q1005 NOSIG
  • 120430Z AUTO 36005KT 9999 BKN043/// OVC049/// 09/03 Q1004 NOSIG
  • 120400Z AUTO 01003KT 9999 FEW035/// BKN041/// OVC046/// 09/03 Q1005 NOSIG
  • 120330Z AUTO 01004KT 9999 BKN036/// OVC042/// 09/03 Q1005 NOSIG

TAF TAF LDSP
Valid from the 12 at 06:00 until the 13 at 06:00 UTC


120525Z 1206/1306 10007KT 9999 BKN030 TX11/1212Z TN09/1206Z
PROB40
TEMPO 1215/1300 08008KT 4000 RA
PROB30
TEMPO 1218/1223 3000 SHRA FEW020CB FEW023TCU BKN025



MET'MAP, your aeronautical weather chart ! - Copyright ORBIFLY December 2007 - Disclaimer

ORBIFLY MET'MAP TEAM :

Programming & Development : Alexandra Zaïnal
Concept & original design : Baudouin d'Aumeries
Assistance for programming : Marc-Olivier Méhu
Technical & hardware support : Manuel Goepfert

Contact : metmap@orbifly.com




SOURCES & CREDITS :

   NOAA